sensor_id;sensor_type;location;lat;lon;timestamp;P1;durP1;ratioP1;P2;durP2;ratioP2
43620;SDS011;29213;50.770;7.298;2023-09-19T00:00:41;3.97;;;1.50;;
43620;SDS011;29213;50.770;7.298;2023-09-19T00:03:09;2.53;;;1.20;;
43620;SDS011;29213;50.770;7.298;2023-09-19T00:05:37;3.35;;;1.40;;
43620;SDS011;29213;50.770;7.298;2023-09-19T00:08:09;4.63;;;1.70;;
43620;SDS011;29213;50.770;7.298;2023-09-19T00:10:35;4.20;;;1.50;;
43620;SDS011;29213;50.770;7.298;2023-09-19T00:13:01;3.55;;;1.60;;
43620;SDS011;29213;50.770;7.298;2023-09-19T00:15:45;2.55;;;1.20;;
43620;SDS011;29213;50.770;7.298;2023-09-19T00:18:15;3.25;;;1.40;;
43620;SDS011;29213;50.770;7.298;2023-09-19T00:20:43;3.60;;;1.30;;
43620;SDS011;29213;50.770;7.298;2023-09-19T00:23:12;4.22;;;1.48;;
43620;SDS011;29213;50.770;7.298;2023-09-19T00:25:38;2.88;;;1.30;;
43620;SDS011;29213;50.770;7.298;2023-09-19T00:28:05;3.75;;;1.50;;
43620;SDS011;29213;50.770;7.298;2023-09-19T00:30:32;3.42;;;1.40;;
43620;SDS011;29213;50.770;7.298;2023-09-19T00:32:58;5.07;;;1.67;;
43620;SDS011;29213;50.770;7.298;2023-09-19T00:35:24;4.28;;;1.55;;
43620;SDS011;29213;50.770;7.298;2023-09-19T00:37:50;5.10;;;1.50;;
43620;SDS011;29213;50.770;7.298;2023-09-19T00:40:16;3.38;;;1.38;;
43620;SDS011;29213;50.770;7.298;2023-09-19T00:42:45;3.75;;;1.30;;
43620;SDS011;29213;50.770;7.298;2023-09-19T00:45:12;3.40;;;1.38;;
43620;SDS011;29213;50.770;7.298;2023-09-19T00:47:45;5.55;;;1.55;;
43620;SDS011;29213;50.770;7.298;2023-09-19T00:50:17;5.00;;;1.55;;
43620;SDS011;29213;50.770;7.298;2023-09-19T00:52:44;4.47;;;1.50;;
43620;SDS011;29213;50.770;7.298;2023-09-19T00:55:11;6.80;;;1.52;;
43620;SDS011;29213;50.770;7.298;2023-09-19T00:57:38;3.05;;;1.30;;
43620;SDS011;29213;50.770;7.298;2023-09-19T01:00:05;3.83;;;1.40;;
43620;SDS011;29213;50.770;7.298;2023-09-19T01:02:34;3.92;;;1.42;;
43620;SDS011;29213;50.770;7.298;2023-09-19T01:05:00;4.25;;;1.58;;
43620;SDS011;29213;50.770;7.298;2023-09-19T01:07:29;4.68;;;1.40;;
43620;SDS011;29213;50.770;7.298;2023-09-19T01:09:56;5.20;;;1.42;;
43620;SDS011;29213;50.770;7.298;2023-09-19T01:12:28;4.05;;;1.20;;
43620;SDS011;29213;50.770;7.298;2023-09-19T01:15:11;3.47;;;1.35;;
43620;SDS011;29213;50.770;7.298;2023-09-19T01:17:46;5.38;;;1.70;;
43620;SDS011;29213;50.770;7.298;2023-09-19T01:28:36;4.93;;;1.40;;
43620;SDS011;29213;50.770;7.298;2023-09-19T01:31:12;4.05;;;1.42;;
43620;SDS011;29213;50.770;7.298;2023-09-19T01:33:58;4.25;;;1.30;;
43620;SDS011;29213;50.770;7.298;2023-09-19T01:36:26;3.42;;;1.33;;
43620;SDS011;29213;50.770;7.298;2023-09-19T01:38:54;5.13;;;1.30;;
43620;SDS011;29213;50.770;7.298;2023-09-19T01:41:32;4.05;;;1.30;;
43620;SDS011;29213;50.770;7.298;2023-09-19T01:44:06;3.00;;;1.35;;
43620;SDS011;29213;50.770;7.298;2023-09-19T01:46:39;3.20;;;1.35;;
43620;SDS011;29213;50.770;7.298;2023-09-19T01:54:32;3.00;;;1.35;;
43620;SDS011;29213;50.770;7.298;2023-09-19T01:57:05;4.75;;;1.27;;
43620;SDS011;29213;50.770;7.298;2023-09-19T01:59:47;5.70;;;1.38;;
43620;SDS011;29213;50.770;7.298;2023-09-19T02:02:16;3.67;;;1.45;;
43620;SDS011;29213;50.770;7.298;2023-09-19T02:04:42;4.38;;;1.48;;
43620;SDS011;29213;50.770;7.298;2023-09-19T02:07:08;3.65;;;1.45;;
43620;SDS011;29213;50.770;7.298;2023-09-19T02:09:34;5.97;;;1.40;;
43620;SDS011;29213;50.770;7.298;2023-09-19T02:12:01;4.93;;;1.60;;
43620;SDS011;29213;50.770;7.298;2023-09-19T02:14:28;6.47;;;1.45;;
43620;SDS011;29213;50.770;7.298;2023-09-19T02:16:54;4.20;;;1.27;;
43620;SDS011;29213;50.770;7.298;2023-09-19T02:19:20;4.47;;;1.30;;
43620;SDS011;29213;50.770;7.298;2023-09-19T02:21:46;5.25;;;1.48;;
43620;SDS011;29213;50.770;7.298;2023-09-19T02:24:13;3.50;;;1.30;;
43620;SDS011;29213;50.770;7.298;2023-09-19T02:26:40;5.07;;;1.50;;
43620;SDS011;29213;50.770;7.298;2023-09-19T02:29:06;5.22;;;1.65;;
43620;SDS011;29213;50.770;7.298;2023-09-19T02:31:31;6.15;;;1.60;;
43620;SDS011;29213;50.770;7.298;2023-09-19T02:33:56;6.45;;;1.60;;
43620;SDS011;29213;50.770;7.298;2023-09-19T02:36:22;5.88;;;1.40;;
43620;SDS011;29213;50.770;7.298;2023-09-19T02:38:48;4.07;;;1.50;;
43620;SDS011;29213;50.770;7.298;2023-09-19T02:41:14;4.40;;;1.35;;
43620;SDS011;29213;50.770;7.298;2023-09-19T02:43:40;6.07;;;1.98;;
43620;SDS011;29213;50.770;7.298;2023-09-19T02:46:05;4.15;;;1.50;;
43620;SDS011;29213;50.770;7.298;2023-09-19T02:48:31;6.70;;;1.50;;
43620;SDS011;29213;50.770;7.298;2023-09-19T02:50:57;4.88;;;1.40;;
43620;SDS011;29213;50.770;7.298;2023-09-19T02:53:23;6.45;;;1.83;;
43620;SDS011;29213;50.770;7.298;2023-09-19T02:55:49;5.65;;;2.00;;
43620;SDS011;29213;50.770;7.298;2023-09-19T02:58:14;5.65;;;1.60;;
43620;SDS011;29213;50.770;7.298;2023-09-19T03:00:41;4.90;;;1.65;;
43620;SDS011;29213;50.770;7.298;2023-09-19T03:03:07;4.68;;;1.60;;
43620;SDS011;29213;50.770;7.298;2023-09-19T03:05:34;4.85;;;1.60;;
43620;SDS011;29213;50.770;7.298;2023-09-19T03:08:00;5.75;;;1.70;;
43620;SDS011;29213;50.770;7.298;2023-09-19T03:10:26;5.72;;;1.80;;
43620;SDS011;29213;50.770;7.298;2023-09-19T03:12:53;7.28;;;1.95;;
43620;SDS011;29213;50.770;7.298;2023-09-19T03:15:18;6.15;;;1.95;;
43620;SDS011;29213;50.770;7.298;2023-09-19T03:17:44;5.38;;;1.70;;
43620;SDS011;29213;50.770;7.298;2023-09-19T03:20:10;5.65;;;1.75;;
43620;SDS011;29213;50.770;7.298;2023-09-19T03:22:38;4.35;;;1.35;;
43620;SDS011;29213;50.770;7.298;2023-09-19T03:25:05;5.03;;;1.58;;
43620;SDS011;29213;50.770;7.298;2023-09-19T03:27:36;4.47;;;1.67;;
43620;SDS011;29213;50.770;7.298;2023-09-19T03:30:02;4.80;;;1.88;;
43620;SDS011;29213;50.770;7.298;2023-09-19T03:32:32;6.82;;;1.80;;
43620;SDS011;29213;50.770;7.298;2023-09-19T03:34:57;6.43;;;1.80;;
43620;SDS011;29213;50.770;7.298;2023-09-19T03:37:23;7.55;;;1.70;;
43620;SDS011;29213;50.770;7.298;2023-09-19T03:39:48;6.43;;;1.95;;
43620;SDS011;29213;50.770;7.298;2023-09-19T03:42:14;4.97;;;1.45;;
43620;SDS011;29213;50.770;7.298;2023-09-19T03:44:39;5.63;;;1.77;;
43620;SDS011;29213;50.770;7.298;2023-09-19T03:47:04;4.00;;;1.70;;
43620;SDS011;29213;50.770;7.298;2023-09-19T03:49:30;5.30;;;1.73;;
43620;SDS011;29213;50.770;7.298;2023-09-19T03:51:55;6.82;;;1.95;;
43620;SDS011;29213;50.770;7.298;2023-09-19T03:54:21;5.55;;;1.92;;
43620;SDS011;29213;50.770;7.298;2023-09-19T03:56:46;7.88;;;2.08;;
43620;SDS011;29213;50.770;7.298;2023-09-19T03:59:12;4.43;;;1.70;;
43620;SDS011;29213;50.770;7.298;2023-09-19T04:01:37;4.80;;;1.50;;
43620;SDS011;29213;50.770;7.298;2023-09-19T04:04:03;5.82;;;1.85;;
43620;SDS011;29213;50.770;7.298;2023-09-19T04:06:33;8.73;;;2.20;;
43620;SDS011;29213;50.770;7.298;2023-09-19T04:09:00;6.95;;;2.10;;
43620;SDS011;29213;50.770;7.298;2023-09-19T04:11:26;5.45;;;1.88;;
43620;SDS011;29213;50.770;7.298;2023-09-19T04:13:52;6.07;;;1.77;;
43620;SDS011;29213;50.770;7.298;2023-09-19T04:16:17;5.57;;;1.90;;
43620;SDS011;29213;50.770;7.298;2023-09-19T04:18:43;8.77;;;2.10;;
43620;SDS011;29213;50.770;7.298;2023-09-19T04:21:09;7.57;;;1.98;;
43620;SDS011;29213;50.770;7.298;2023-09-19T04:23:34;4.75;;;1.83;;
43620;SDS011;29213;50.770;7.298;2023-09-19T04:26:00;5.85;;;1.92;;
43620;SDS011;29213;50.770;7.298;2023-09-19T04:28:25;6.70;;;2.08;;
43620;SDS011;29213;50.770;7.298;2023-09-19T04:30:53;5.57;;;2.05;;
43620;SDS011;29213;50.770;7.298;2023-09-19T04:33:18;5.70;;;1.83;;
43620;SDS011;29213;50.770;7.298;2023-09-19T04:35:44;7.05;;;2.20;;
43620;SDS011;29213;50.770;7.298;2023-09-19T04:38:09;6.35;;;1.70;;
43620;SDS011;29213;50.770;7.298;2023-09-19T04:40:34;5.53;;;1.73;;
43620;SDS011;29213;50.770;7.298;2023-09-19T04:43:00;6.20;;;1.88;;
43620;SDS011;29213;50.770;7.298;2023-09-19T04:45:26;8.38;;;1.80;;
43620;SDS011;29213;50.770;7.298;2023-09-19T04:47:52;5.38;;;1.98;;
43620;SDS011;29213;50.770;7.298;2023-09-19T04:50:18;5.78;;;2.08;;
43620;SDS011;29213;50.770;7.298;2023-09-19T04:52:48;5.72;;;1.65;;
43620;SDS011;29213;50.770;7.298;2023-09-19T04:57:43;6.72;;;2.20;;
43620;SDS011;29213;50.770;7.298;2023-09-19T05:00:10;6.80;;;2.17;;
43620;SDS011;29213;50.770;7.298;2023-09-19T05:02:37;5.22;;;1.83;;
43620;SDS011;29213;50.770;7.298;2023-09-19T05:05:03;6.43;;;2.05;;
43620;SDS011;29213;50.770;7.298;2023-09-19T05:07:30;7.30;;;2.10;;
43620;SDS011;29213;50.770;7.298;2023-09-19T05:09:55;4.22;;;1.65;;
43620;SDS011;29213;50.770;7.298;2023-09-19T05:12:20;4.78;;;1.67;;
43620;SDS011;29213;50.770;7.298;2023-09-19T05:14:46;6.93;;;1.98;;
43620;SDS011;29213;50.770;7.298;2023-09-19T05:17:11;7.45;;;2.35;;
43620;SDS011;29213;50.770;7.298;2023-09-19T05:19:38;8.25;;;1.95;;
43620;SDS011;29213;50.770;7.298;2023-09-19T05:22:04;5.32;;;1.55;;
43620;SDS011;29213;50.770;7.298;2023-09-19T05:24:29;8.13;;;2.17;;
43620;SDS011;29213;50.770;7.298;2023-09-19T05:26:56;6.50;;;2.00;;
43620;SDS011;29213;50.770;7.298;2023-09-19T05:29:22;4.78;;;1.70;;
43620;SDS011;29213;50.770;7.298;2023-09-19T05:31:47;5.40;;;1.63;;
43620;SDS011;29213;50.770;7.298;2023-09-19T05:34:14;8.20;;;2.10;;
43620;SDS011;29213;50.770;7.298;2023-09-19T05:36:40;6.47;;;1.92;;
43620;SDS011;29213;50.770;7.298;2023-09-19T05:39:05;9.15;;;2.00;;
43620;SDS011;29213;50.770;7.298;2023-09-19T05:41:34;7.97;;;1.98;;
43620;SDS011;29213;50.770;7.298;2023-09-19T05:44:01;5.70;;;2.05;;
43620;SDS011;29213;50.770;7.298;2023-09-19T05:46:28;6.15;;;2.08;;
43620;SDS011;29213;50.770;7.298;2023-09-19T05:48:55;8.18;;;2.05;;
43620;SDS011;29213;50.770;7.298;2023-09-19T05:51:22;6.55;;;2.00;;
43620;SDS011;29213;50.770;7.298;2023-09-19T05:53:48;7.95;;;1.70;;
43620;SDS011;29213;50.770;7.298;2023-09-19T05:56:13;6.18;;;2.03;;
43620;SDS011;29213;50.770;7.298;2023-09-19T05:58:40;5.07;;;1.77;;
43620;SDS011;29213;50.770;7.298;2023-09-19T06:01:08;5.13;;;1.63;;
43620;SDS011;29213;50.770;7.298;2023-09-19T06:03:34;6.70;;;2.13;;
43620;SDS011;29213;50.770;7.298;2023-09-19T06:06:01;7.35;;;2.15;;
43620;SDS011;29213;50.770;7.298;2023-09-19T06:08:27;5.88;;;1.90;;
43620;SDS011;29213;50.770;7.298;2023-09-19T06:10:53;6.35;;;1.98;;
43620;SDS011;29213;50.770;7.298;2023-09-19T06:13:19;6.93;;;1.90;;
43620;SDS011;29213;50.770;7.298;2023-09-19T06:15:45;7.43;;;2.13;;
43620;SDS011;29213;50.770;7.298;2023-09-19T06:18:11;6.97;;;1.98;;
43620;SDS011;29213;50.770;7.298;2023-09-19T06:20:42;7.20;;;2.20;;
43620;SDS011;29213;50.770;7.298;2023-09-19T06:23:09;5.63;;;2.20;;
43620;SDS011;29213;50.770;7.298;2023-09-19T06:25:35;7.88;;;1.88;;
43620;SDS011;29213;50.770;7.298;2023-09-19T06:28:00;7.65;;;1.90;;
43620;SDS011;29213;50.770;7.298;2023-09-19T06:30:30;6.50;;;1.90;;
43620;SDS011;29213;50.770;7.298;2023-09-19T06:32:57;5.60;;;2.05;;
43620;SDS011;29213;50.770;7.298;2023-09-19T06:35:23;8.25;;;2.22;;
43620;SDS011;29213;50.770;7.298;2023-09-19T06:37:49;9.85;;;2.20;;
43620;SDS011;29213;50.770;7.298;2023-09-19T06:40:14;6.28;;;2.00;;
43620;SDS011;29213;50.770;7.298;2023-09-19T06:42:43;7.78;;;2.50;;
43620;SDS011;29213;50.770;7.298;2023-09-19T06:45:11;7.47;;;2.05;;
43620;SDS011;29213;50.770;7.298;2023-09-19T06:47:38;8.30;;;2.30;;
43620;SDS011;29213;50.770;7.298;2023-09-19T06:50:05;9.73;;;2.30;;
43620;SDS011;29213;50.770;7.298;2023-09-19T06:52:31;5.78;;;1.90;;
43620;SDS011;29213;50.770;7.298;2023-09-19T06:54:58;5.70;;;2.08;;
43620;SDS011;29213;50.770;7.298;2023-09-19T06:57:23;7.90;;;2.10;;
43620;SDS011;29213;50.770;7.298;2023-09-19T06:59:50;5.63;;;2.03;;
43620;SDS011;29213;50.770;7.298;2023-09-19T07:02:16;7.97;;;2.28;;
43620;SDS011;29213;50.770;7.298;2023-09-19T07:04:41;5.88;;;2.10;;
43620;SDS011;29213;50.770;7.298;2023-09-19T07:07:07;5.22;;;2.00;;
43620;SDS011;29213;50.770;7.298;2023-09-19T07:09:35;6.65;;;2.17;;
43620;SDS011;29213;50.770;7.298;2023-09-19T07:12:00;6.30;;;2.17;;
43620;SDS011;29213;50.770;7.298;2023-09-19T07:14:26;7.05;;;2.22;;
43620;SDS011;29213;50.770;7.298;2023-09-19T07:16:52;8.52;;;2.58;;
43620;SDS011;29213;50.770;7.298;2023-09-19T07:19:17;9.70;;;2.35;;
43620;SDS011;29213;50.770;7.298;2023-09-19T07:21:42;6.30;;;2.05;;
43620;SDS011;29213;50.770;7.298;2023-09-19T07:24:08;6.13;;;2.00;;
43620;SDS011;29213;50.770;7.298;2023-09-19T07:26:33;7.25;;;2.20;;
43620;SDS011;29213;50.770;7.298;2023-09-19T07:28:59;6.38;;;2.08;;
43620;SDS011;29213;50.770;7.298;2023-09-19T07:31:25;7.30;;;2.22;;
43620;SDS011;29213;50.770;7.298;2023-09-19T07:33:50;5.80;;;2.10;;
43620;SDS011;29213;50.770;7.298;2023-09-19T07:36:16;7.28;;;2.30;;
43620;SDS011;29213;50.770;7.298;2023-09-19T07:38:42;6.78;;;2.15;;
43620;SDS011;29213;50.770;7.298;2023-09-19T07:41:07;7.53;;;2.40;;
43620;SDS011;29213;50.770;7.298;2023-09-19T07:43:36;8.05;;;2.20;;
43620;SDS011;29213;50.770;7.298;2023-09-19T07:46:07;6.40;;;1.77;;
43620;SDS011;29213;50.770;7.298;2023-09-19T07:48:34;6.13;;;2.00;;
43620;SDS011;29213;50.770;7.298;2023-09-19T07:51:04;8.73;;;2.78;;
43620;SDS011;29213;50.770;7.298;2023-09-19T07:53:31;8.38;;;2.22;;
43620;SDS011;29213;50.770;7.298;2023-09-19T07:56:06;5.77;;;1.80;;
43620;SDS011;29213;50.770;7.298;2023-09-19T07:58:32;6.45;;;2.08;;
43620;SDS011;29213;50.770;7.298;2023-09-19T08:01:07;4.72;;;1.88;;
43620;SDS011;29213;50.770;7.298;2023-09-19T08:03:39;7.07;;;2.38;;
43620;SDS011;29213;50.770;7.298;2023-09-19T08:06:08;7.53;;;2.08;;
43620;SDS011;29213;50.770;7.298;2023-09-19T08:08:34;7.55;;;2.28;;
43620;SDS011;29213;50.770;7.298;2023-09-19T08:11:03;6.07;;;1.80;;
43620;SDS011;29213;50.770;7.298;2023-09-19T08:13:36;5.78;;;1.95;;
43620;SDS011;29213;50.770;7.298;2023-09-19T08:16:03;6.88;;;2.00;;
43620;SDS011;29213;50.770;7.298;2023-09-19T08:18:29;5.50;;;1.90;;
43620;SDS011;29213;50.770;7.298;2023-09-19T08:20:55;5.72;;;1.77;;
43620;SDS011;29213;50.770;7.298;2023-09-19T08:23:23;8.82;;;2.10;;
43620;SDS011;29213;50.770;7.298;2023-09-19T08:25:49;4.32;;;1.77;;
43620;SDS011;29213;50.770;7.298;2023-09-19T08:28:14;6.43;;;1.80;;
43620;SDS011;29213;50.770;7.298;2023-09-19T08:30:44;7.20;;;2.22;;
43620;SDS011;29213;50.770;7.298;2023-09-19T08:33:10;7.53;;;2.10;;
43620;SDS011;29213;50.770;7.298;2023-09-19T08:35:36;6.13;;;1.92;;
43620;SDS011;29213;50.770;7.298;2023-09-19T08:38:04;5.55;;;1.92;;
43620;SDS011;29213;50.770;7.298;2023-09-19T08:40:31;5.40;;;1.83;;
43620;SDS011;29213;50.770;7.298;2023-09-19T08:42:58;6.32;;;1.95;;
43620;SDS011;29213;50.770;7.298;2023-09-19T08:45:26;6.80;;;2.03;;
43620;SDS011;29213;50.770;7.298;2023-09-19T08:51:29;5.57;;;1.75;;
43620;SDS011;29213;50.770;7.298;2023-09-19T08:56:38;7.72;;;2.25;;
43620;SDS011;29213;50.770;7.298;2023-09-19T08:59:07;8.23;;;2.50;;
43620;SDS011;29213;50.770;7.298;2023-09-19T09:01:33;5.20;;;1.95;;
43620;SDS011;29213;50.770;7.298;2023-09-19T09:04:00;6.50;;;1.90;;
43620;SDS011;29213;50.770;7.298;2023-09-19T09:06:27;7.10;;;1.90;;
43620;SDS011;29213;50.770;7.298;2023-09-19T09:08:54;6.68;;;1.77;;
43620;SDS011;29213;50.770;7.298;2023-09-19T09:11:20;6.85;;;2.40;;
43620;SDS011;29213;50.770;7.298;2023-09-19T09:13:46;5.57;;;1.80;;
43620;SDS011;29213;50.770;7.298;2023-09-19T09:16:13;6.60;;;1.98;;
43620;SDS011;29213;50.770;7.298;2023-09-19T09:18:43;6.95;;;2.35;;
43620;SDS011;29213;50.770;7.298;2023-09-19T09:21:10;6.07;;;2.05;;
43620;SDS011;29213;50.770;7.298;2023-09-19T09:23:36;5.68;;;1.92;;
43620;SDS011;29213;50.770;7.298;2023-09-19T09:26:02;5.28;;;1.90;;
43620;SDS011;29213;50.770;7.298;2023-09-19T09:28:28;5.53;;;1.75;;
43620;SDS011;29213;50.770;7.298;2023-09-19T09:30:56;5.20;;;1.60;;
43620;SDS011;29213;50.770;7.298;2023-09-19T09:33:33;5.38;;;1.65;;
43620;SDS011;29213;50.770;7.298;2023-09-19T09:36:00;8.13;;;2.75;;
43620;SDS011;29213;50.770;7.298;2023-09-19T09:38:29;7.00;;;2.60;;
43620;SDS011;29213;50.770;7.298;2023-09-19T09:41:08;9.50;;;4.25;;
43620;SDS011;29213;50.770;7.298;2023-09-19T09:43:38;6.93;;;2.10;;
43620;SDS011;29213;50.770;7.298;2023-09-19T09:51:38;5.40;;;1.95;;
43620;SDS011;29213;50.770;7.298;2023-09-19T09:54:14;6.25;;;1.90;;
43620;SDS011;29213;50.770;7.298;2023-09-19T09:56:56;7.18;;;1.70;;
43620;SDS011;29213;50.770;7.298;2023-09-19T10:02:29;7.75;;;2.60;;
43620;SDS011;29213;50.770;7.298;2023-09-19T10:05:11;10.77;;;3.97;;
43620;SDS011;29213;50.770;7.298;2023-09-19T10:07:53;5.40;;;2.00;;
43620;SDS011;29213;50.770;7.298;2023-09-19T10:10:32;5.82;;;2.08;;
43620;SDS011;29213;50.770;7.298;2023-09-19T10:13:05;5.15;;;2.00;;
43620;SDS011;29213;50.770;7.298;2023-09-19T10:15:33;4.75;;;1.83;;
43620;SDS011;29213;50.770;7.298;2023-09-19T10:18:01;5.50;;;1.88;;
43620;SDS011;29213;50.770;7.298;2023-09-19T10:20:33;5.43;;;1.63;;
43620;SDS011;29213;50.770;7.298;2023-09-19T10:23:07;5.70;;;1.80;;
43620;SDS011;29213;50.770;7.298;2023-09-19T10:25:36;4.55;;;1.75;;
43620;SDS011;29213;50.770;7.298;2023-09-19T10:28:05;5.45;;;1.92;;
43620;SDS011;29213;50.770;7.298;2023-09-19T10:30:36;4.43;;;1.67;;
43620;SDS011;29213;50.770;7.298;2023-09-19T10:33:07;4.50;;;1.50;;
43620;SDS011;29213;50.770;7.298;2023-09-19T10:35:33;5.30;;;1.65;;
43620;SDS011;29213;50.770;7.298;2023-09-19T10:38:03;6.38;;;1.60;;
43620;SDS011;29213;50.770;7.298;2023-09-19T10:40:32;6.97;;;1.92;;
43620;SDS011;29213;50.770;7.298;2023-09-19T10:43:02;4.82;;;1.60;;
43620;SDS011;29213;50.770;7.298;2023-09-19T10:47:57;5.03;;;1.85;;
43620;SDS011;29213;50.770;7.298;2023-09-19T10:50:23;4.75;;;1.80;;
43620;SDS011;29213;50.770;7.298;2023-09-19T10:52:49;5.57;;;1.85;;
43620;SDS011;29213;50.770;7.298;2023-09-19T10:55:23;4.47;;;1.67;;
43620;SDS011;29213;50.770;7.298;2023-09-19T10:57:50;4.95;;;1.90;;
43620;SDS011;29213;50.770;7.298;2023-09-19T11:00:17;4.90;;;1.77;;
43620;SDS011;29213;50.770;7.298;2023-09-19T11:30:50;4.85;;;1.83;;
43620;SDS011;29213;50.770;7.298;2023-09-19T11:33:27;4.20;;;1.60;;
43620;SDS011;29213;50.770;7.298;2023-09-19T11:36:06;5.53;;;1.80;;
43620;SDS011;29213;50.770;7.298;2023-09-19T11:43:51;6.43;;;1.85;;
43620;SDS011;29213;50.770;7.298;2023-09-19T11:49:17;5.82;;;1.75;;
43620;SDS011;29213;50.770;7.298;2023-09-19T11:51:50;4.88;;;1.90;;
43620;SDS011;29213;50.770;7.298;2023-09-19T11:54:19;5.20;;;1.73;;
43620;SDS011;29213;50.770;7.298;2023-09-19T11:56:50;5.15;;;1.77;;
43620;SDS011;29213;50.770;7.298;2023-09-19T11:59:21;6.03;;;2.15;;
43620;SDS011;29213;50.770;7.298;2023-09-19T12:01:58;4.00;;;1.70;;
43620;SDS011;29213;50.770;7.298;2023-09-19T12:04:40;4.55;;;1.50;;
43620;SDS011;29213;50.770;7.298;2023-09-19T12:07:09;5.25;;;1.80;;
43620;SDS011;29213;50.770;7.298;2023-09-19T12:09:41;4.63;;;1.60;;
43620;SDS011;29213;50.770;7.298;2023-09-19T12:12:09;3.67;;;1.42;;
43620;SDS011;29213;50.770;7.298;2023-09-19T12:14:37;5.87;;;1.80;;
43620;SDS011;29213;50.770;7.298;2023-09-19T12:17:04;6.43;;;1.60;;
43620;SDS011;29213;50.770;7.298;2023-09-19T12:19:30;3.85;;;1.70;;
43620;SDS011;29213;50.770;7.298;2023-09-19T12:21:56;4.43;;;1.48;;
43620;SDS011;29213;50.770;7.298;2023-09-19T12:24:29;4.57;;;1.63;;
43620;SDS011;29213;50.770;7.298;2023-09-19T12:26:59;4.82;;;2.10;;
43620;SDS011;29213;50.770;7.298;2023-09-19T12:29:29;5.20;;;1.75;;
43620;SDS011;29213;50.770;7.298;2023-09-19T12:31:59;4.15;;;1.65;;
43620;SDS011;29213;50.770;7.298;2023-09-19T12:34:31;4.60;;;1.52;;
43620;SDS011;29213;50.770;7.298;2023-09-19T12:37:07;3.53;;;1.70;;
43620;SDS011;29213;50.770;7.298;2023-09-19T12:39:53;4.20;;;1.52;;
43620;SDS011;29213;50.770;7.298;2023-09-19T12:42:39;5.00;;;1.58;;
43620;SDS011;29213;50.770;7.298;2023-09-19T12:45:06;7.88;;;2.03;;
43620;SDS011;29213;50.770;7.298;2023-09-19T12:47:34;4.30;;;1.70;;
43620;SDS011;29213;50.770;7.298;2023-09-19T12:50:06;4.47;;;1.80;;
43620;SDS011;29213;50.770;7.298;2023-09-19T12:52:42;6.68;;;1.75;;
43620;SDS011;29213;50.770;7.298;2023-09-19T13:00:36;5.03;;;1.60;;
43620;SDS011;29213;50.770;7.298;2023-09-19T13:03:11;4.80;;;1.73;;
43620;SDS011;29213;50.770;7.298;2023-09-19T13:13:45;4.20;;;1.55;;
43620;SDS011;29213;50.770;7.298;2023-09-19T13:16:19;4.72;;;1.50;;
43620;SDS011;29213;50.770;7.298;2023-09-19T13:24:20;4.18;;;1.42;;
43620;SDS011;29213;50.770;7.298;2023-09-19T13:26:47;4.75;;;1.48;;
43620;SDS011;29213;50.770;7.298;2023-09-19T13:29:13;5.38;;;1.38;;
43620;SDS011;29213;50.770;7.298;2023-09-19T13:31:45;4.35;;;1.13;;
43620;SDS011;29213;50.770;7.298;2023-09-19T13:34:11;4.20;;;1.40;;
43620;SDS011;29213;50.770;7.298;2023-09-19T13:36:36;3.92;;;1.15;;
43620;SDS011;29213;50.770;7.298;2023-09-19T13:39:02;3.75;;;1.17;;
43620;SDS011;29213;50.770;7.298;2023-09-19T13:41:30;5.50;;;1.40;;
43620;SDS011;29213;50.770;7.298;2023-09-19T13:43:56;3.13;;;1.10;;
43620;SDS011;29213;50.770;7.298;2023-09-19T13:46:22;5.20;;;1.38;;
43620;SDS011;29213;50.770;7.298;2023-09-19T13:48:51;4.00;;;1.40;;
43620;SDS011;29213;50.770;7.298;2023-09-19T13:51:20;3.63;;;1.17;;
43620;SDS011;29213;50.770;7.298;2023-09-19T13:53:48;4.22;;;1.45;;
43620;SDS011;29213;50.770;7.298;2023-09-19T13:56:14;3.55;;;1.20;;
43620;SDS011;29213;50.770;7.298;2023-09-19T13:58:39;4.05;;;1.30;;
43620;SDS011;29213;50.770;7.298;2023-09-19T14:01:07;4.15;;;1.42;;
43620;SDS011;29213;50.770;7.298;2023-09-19T14:03:37;3.70;;;1.30;;
43620;SDS011;29213;50.770;7.298;2023-09-19T14:06:03;4.57;;;1.30;;
43620;SDS011;29213;50.770;7.298;2023-09-19T14:08:29;4.38;;;1.25;;
43620;SDS011;29213;50.770;7.298;2023-09-19T14:10:54;3.55;;;1.17;;
43620;SDS011;29213;50.770;7.298;2023-09-19T14:13:20;4.13;;;1.20;;
43620;SDS011;29213;50.770;7.298;2023-09-19T14:15:46;3.70;;;1.10;;
43620;SDS011;29213;50.770;7.298;2023-09-19T14:18:11;3.13;;;1.20;;
43620;SDS011;29213;50.770;7.298;2023-09-19T14:20:40;4.50;;;1.38;;
43620;SDS011;29213;50.770;7.298;2023-09-19T14:23:06;3.05;;;1.17;;
43620;SDS011;29213;50.770;7.298;2023-09-19T14:25:33;3.50;;;1.27;;
43620;SDS011;29213;50.770;7.298;2023-09-19T14:28:00;3.00;;;1.17;;
43620;SDS011;29213;50.770;7.298;2023-09-19T14:30:25;5.85;;;1.15;;
43620;SDS011;29213;50.770;7.298;2023-09-19T14:32:51;2.50;;;1.00;;
43620;SDS011;29213;50.770;7.298;2023-09-19T14:35:16;4.45;;;1.30;;
43620;SDS011;29213;50.770;7.298;2023-09-19T14:37:42;4.28;;;1.50;;
43620;SDS011;29213;50.770;7.298;2023-09-19T14:40:08;3.00;;;1.20;;
43620;SDS011;29213;50.770;7.298;2023-09-19T14:42:38;4.88;;;1.58;;
43620;SDS011;29213;50.770;7.298;2023-09-19T14:45:04;3.20;;;1.17;;
43620;SDS011;29213;50.770;7.298;2023-09-19T14:47:31;4.85;;;1.33;;
43620;SDS011;29213;50.770;7.298;2023-09-19T14:50:00;2.63;;;1.00;;
43620;SDS011;29213;50.770;7.298;2023-09-19T14:52:27;3.35;;;1.20;;
43620;SDS011;29213;50.770;7.298;2023-09-19T14:54:53;4.22;;;1.60;;
43620;SDS011;29213;50.770;7.298;2023-09-19T14:57:19;3.35;;;1.00;;
43620;SDS011;29213;50.770;7.298;2023-09-19T14:59:45;3.47;;;1.20;;
43620;SDS011;29213;50.770;7.298;2023-09-19T15:02:10;3.70;;;1.20;;
43620;SDS011;29213;50.770;7.298;2023-09-19T15:04:36;3.90;;;1.10;;
43620;SDS011;29213;50.770;7.298;2023-09-19T15:07:03;4.28;;;1.23;;
43620;SDS011;29213;50.770;7.298;2023-09-19T15:09:28;3.08;;;1.10;;
43620;SDS011;29213;50.770;7.298;2023-09-19T15:11:57;4.18;;;1.13;;
43620;SDS011;29213;50.770;7.298;2023-09-19T15:14:22;2.78;;;1.00;;
43620;SDS011;29213;50.770;7.298;2023-09-19T15:16:50;3.15;;;1.00;;
43620;SDS011;29213;50.770;7.298;2023-09-19T15:19:15;2.90;;;1.10;;
43620;SDS011;29213;50.770;7.298;2023-09-19T15:21:42;5.63;;;1.27;;
43620;SDS011;29213;50.770;7.298;2023-09-19T15:24:08;3.05;;;1.17;;
43620;SDS011;29213;50.770;7.298;2023-09-19T15:26:35;3.03;;;1.02;;
43620;SDS011;29213;50.770;7.298;2023-09-19T15:29:06;3.10;;;1.13;;
43620;SDS011;29213;50.770;7.298;2023-09-19T15:31:32;4.82;;;1.42;;
43620;SDS011;29213;50.770;7.298;2023-09-19T15:33:58;2.95;;;1.10;;
43620;SDS011;29213;50.770;7.298;2023-09-19T15:36:23;4.18;;;1.20;;
43620;SDS011;29213;50.770;7.298;2023-09-19T15:41:25;4.20;;;1.38;;
43620;SDS011;29213;50.770;7.298;2023-09-19T15:43:52;3.25;;;1.08;;
43620;SDS011;29213;50.770;7.298;2023-09-19T15:46:18;5.00;;;1.25;;
43620;SDS011;29213;50.770;7.298;2023-09-19T15:48:44;4.38;;;1.15;;
43620;SDS011;29213;50.770;7.298;2023-09-19T15:51:11;3.83;;;1.35;;
43620;SDS011;29213;50.770;7.298;2023-09-19T15:53:44;4.25;;;1.33;;
43620;SDS011;29213;50.770;7.298;2023-09-19T15:56:11;3.88;;;1.30;;
43620;SDS011;29213;50.770;7.298;2023-09-19T15:58:37;3.17;;;1.00;;
43620;SDS011;29213;50.770;7.298;2023-09-19T16:01:05;3.13;;;1.10;;
43620;SDS011;29213;50.770;7.298;2023-09-19T16:03:34;3.20;;;1.08;;
43620;SDS011;29213;50.770;7.298;2023-09-19T16:06:10;4.22;;;1.40;;
43620;SDS011;29213;50.770;7.298;2023-09-19T16:08:40;3.30;;;1.30;;
43620;SDS011;29213;50.770;7.298;2023-09-19T16:11:09;4.55;;;1.40;;
43620;SDS011;29213;50.770;7.298;2023-09-19T16:13:36;3.42;;;1.10;;
43620;SDS011;29213;50.770;7.298;2023-09-19T16:16:02;3.33;;;1.00;;
43620;SDS011;29213;50.770;7.298;2023-09-19T16:18:27;4.25;;;1.40;;
43620;SDS011;29213;50.770;7.298;2023-09-19T16:20:52;3.55;;;1.13;;
43620;SDS011;29213;50.770;7.298;2023-09-19T16:23:18;3.22;;;1.10;;